sensor_id;sensor_type;location;lat;lon;timestamp;temperature;humidity
22966;DHT22;11649;48.090;9.754;2022-09-19T00:01:49;9.60;99.90
22966;DHT22;11649;48.090;9.754;2022-09-19T00:04:30;9.60;99.90
22966;DHT22;11649;48.090;9.754;2022-09-19T00:06:58;9.70;99.90
22966;DHT22;11649;48.090;9.754;2022-09-19T00:09:29;9.70;99.90
22966;DHT22;11649;48.090;9.754;2022-09-19T00:11:57;9.70;99.90
22966;DHT22;11649;48.090;9.754;2022-09-19T00:14:27;9.60;99.90
22966;DHT22;11649;48.090;9.754;2022-09-19T00:17:00;9.60;99.90
22966;DHT22;11649;48.090;9.754;2022-09-19T00:19:28;9.60;99.90
22966;DHT22;11649;48.090;9.754;2022-09-19T00:21:57;9.60;99.90
22966;DHT22;11649;48.090;9.754;2022-09-19T00:24:25;9.50;99.90
22966;DHT22;11649;48.090;9.754;2022-09-19T00:27:11;9.40;99.90
22966;DHT22;11649;48.090;9.754;2022-09-19T00:29:40;9.40;99.90
22966;DHT22;11649;48.090;9.754;2022-09-19T00:32:09;9.20;99.90
22966;DHT22;11649;48.090;9.754;2022-09-19T00:34:44;9.20;99.90
22966;DHT22;11649;48.090;9.754;2022-09-19T00:37:12;9.10;99.90
22966;DHT22;11649;48.090;9.754;2022-09-19T00:39:39;9.10;99.90
22966;DHT22;11649;48.090;9.754;2022-09-19T00:42:21;9.10;99.90
22966;DHT22;11649;48.090;9.754;2022-09-19T00:44:55;9.10;99.90
22966;DHT22;11649;48.090;9.754;2022-09-19T00:47:25;9.00;99.90
22966;DHT22;11649;48.090;9.754;2022-09-19T00:49:56;9.10;99.90
22966;DHT22;11649;48.090;9.754;2022-09-19T00:52:34;9.00;99.90
22966;DHT22;11649;48.090;9.754;2022-09-19T00:55:03;9.00;99.90
22966;DHT22;11649;48.090;9.754;2022-09-19T00:58:02;9.10;99.90
22966;DHT22;11649;48.090;9.754;2022-09-19T01:00:30;9.10;99.90
22966;DHT22;11649;48.090;9.754;2022-09-19T01:02:57;9.10;99.90
22966;DHT22;11649;48.090;9.754;2022-09-19T01:05:29;9.10;99.90
22966;DHT22;11649;48.090;9.754;2022-09-19T01:13:53;9.10;99.90
22966;DHT22;11649;48.090;9.754;2022-09-19T01:28:05;9.20;99.90
22966;DHT22;11649;48.090;9.754;2022-09-19T01:30:37;9.20;99.90
22966;DHT22;11649;48.090;9.754;2022-09-19T01:33:12;9.20;99.90
22966;DHT22;11649;48.090;9.754;2022-09-19T01:35:49;9.20;99.90
22966;DHT22;11649;48.090;9.754;2022-09-19T01:38:23;9.20;99.90
22966;DHT22;11649;48.090;9.754;2022-09-19T01:40:51;9.20;99.90
22966;DHT22;11649;48.090;9.754;2022-09-19T01:43:18;9.10;99.90
22966;DHT22;11649;48.090;9.754;2022-09-19T01:45:47;9.20;99.90
22966;DHT22;11649;48.090;9.754;2022-09-19T01:48:31;9.10;99.90
22966;DHT22;11649;48.090;9.754;2022-09-19T01:56:53;9.20;99.90
22966;DHT22;11649;48.090;9.754;2022-09-19T02:02:27;9.20;99.90
22966;DHT22;11649;48.090;9.754;2022-09-19T02:05:07;9.20;99.90
22966;DHT22;11649;48.090;9.754;2022-09-19T02:10:41;9.20;99.90
22966;DHT22;11649;48.090;9.754;2022-09-19T02:13:11;9.30;99.90
22966;DHT22;11649;48.090;9.754;2022-09-19T02:15:41;9.10;99.90
22966;DHT22;11649;48.090;9.754;2022-09-19T02:18:40;9.10;99.90
22966;DHT22;11649;48.090;9.754;2022-09-19T02:21:13;9.20;99.90
22966;DHT22;11649;48.090;9.754;2022-09-19T02:23:48;9.20;99.90
22966;DHT22;11649;48.090;9.754;2022-09-19T02:26:19;9.20;99.90
22966;DHT22;11649;48.090;9.754;2022-09-19T02:28:52;9.20;99.90
22966;DHT22;11649;48.090;9.754;2022-09-19T02:31:22;9.20;99.90
22966;DHT22;11649;48.090;9.754;2022-09-19T02:33:56;9.10;99.90
22966;DHT22;11649;48.090;9.754;2022-09-19T02:36:34;9.10;99.90
22966;DHT22;11649;48.090;9.754;2022-09-19T02:39:27;9.10;99.90
22966;DHT22;11649;48.090;9.754;2022-09-19T02:47:47;9.10;99.90
22966;DHT22;11649;48.090;9.754;2022-09-19T02:50:20;9.10;99.90
22966;DHT22;11649;48.090;9.754;2022-09-19T02:52:51;9.10;99.90
22966;DHT22;11649;48.090;9.754;2022-09-19T02:55:32;9.10;99.90
22966;DHT22;11649;48.090;9.754;2022-09-19T02:58:01;9.20;99.90
22966;DHT22;11649;48.090;9.754;2022-09-19T03:00:33;9.20;99.90
22966;DHT22;11649;48.090;9.754;2022-09-19T03:03:08;9.20;99.90
22966;DHT22;11649;48.090;9.754;2022-09-19T03:05:58;9.30;99.90
22966;DHT22;11649;48.090;9.754;2022-09-19T03:08:26;9.20;99.90
22966;DHT22;11649;48.090;9.754;2022-09-19T03:10:57;9.20;99.90
22966;DHT22;11649;48.090;9.754;2022-09-19T03:13:25;9.10;99.90
22966;DHT22;11649;48.090;9.754;2022-09-19T03:16:06;9.10;99.90
22966;DHT22;11649;48.090;9.754;2022-09-19T03:18:35;9.10;99.90
22966;DHT22;11649;48.090;9.754;2022-09-19T03:21:06;9.00;99.90
22966;DHT22;11649;48.090;9.754;2022-09-19T03:23:44;9.00;99.90
22966;DHT22;11649;48.090;9.754;2022-09-19T03:26:17;9.00;99.90
22966;DHT22;11649;48.090;9.754;2022-09-19T03:28:44;9.00;99.90
22966;DHT22;11649;48.090;9.754;2022-09-19T03:31:11;9.00;99.90
22966;DHT22;11649;48.090;9.754;2022-09-19T03:33:38;8.90;99.90
22966;DHT22;11649;48.090;9.754;2022-09-19T03:36:08;8.90;99.90
22966;DHT22;11649;48.090;9.754;2022-09-19T03:38:37;8.80;99.90
22966;DHT22;11649;48.090;9.754;2022-09-19T03:41:09;8.90;99.90
22966;DHT22;11649;48.090;9.754;2022-09-19T03:43:36;8.90;99.90
22966;DHT22;11649;48.090;9.754;2022-09-19T03:46:03;8.90;99.90
22966;DHT22;11649;48.090;9.754;2022-09-19T03:48:30;8.90;99.90
22966;DHT22;11649;48.090;9.754;2022-09-19T03:50:58;8.80;99.90
22966;DHT22;11649;48.090;9.754;2022-09-19T03:53:27;8.80;99.90
22966;DHT22;11649;48.090;9.754;2022-09-19T03:55:54;8.70;99.90
22966;DHT22;11649;48.090;9.754;2022-09-19T03:58:21;8.70;99.90
22966;DHT22;11649;48.090;9.754;2022-09-19T04:00:50;8.70;99.90
22966;DHT22;11649;48.090;9.754;2022-09-19T04:03:17;8.60;99.90
22966;DHT22;11649;48.090;9.754;2022-09-19T04:05:45;8.60;99.90
22966;DHT22;11649;48.090;9.754;2022-09-19T04:08:12;8.50;99.90
22966;DHT22;11649;48.090;9.754;2022-09-19T04:10:39;8.40;99.90
22966;DHT22;11649;48.090;9.754;2022-09-19T04:13:09;8.40;99.90
22966;DHT22;11649;48.090;9.754;2022-09-19T04:15:36;8.50;99.90
22966;DHT22;11649;48.090;9.754;2022-09-19T04:18:05;8.40;99.90
22966;DHT22;11649;48.090;9.754;2022-09-19T04:20:32;8.40;99.90
22966;DHT22;11649;48.090;9.754;2022-09-19T04:23:00;8.40;99.90
22966;DHT22;11649;48.090;9.754;2022-09-19T04:25:28;8.30;99.90
22966;DHT22;11649;48.090;9.754;2022-09-19T04:28:05;8.30;99.90
22966;DHT22;11649;48.090;9.754;2022-09-19T04:30:34;8.20;99.90
22966;DHT22;11649;48.090;9.754;2022-09-19T04:33:03;8.20;99.90
22966;DHT22;11649;48.090;9.754;2022-09-19T04:35:31;8.20;99.90
22966;DHT22;11649;48.090;9.754;2022-09-19T04:38:04;8.30;99.90
22966;DHT22;11649;48.090;9.754;2022-09-19T04:40:51;8.20;99.90
22966;DHT22;11649;48.090;9.754;2022-09-19T04:43:24;8.20;99.90
22966;DHT22;11649;48.090;9.754;2022-09-19T04:45:54;8.20;99.90
22966;DHT22;11649;48.090;9.754;2022-09-19T04:48:22;8.10;99.90
22966;DHT22;11649;48.090;9.754;2022-09-19T04:50:51;8.10;99.90
22966;DHT22;11649;48.090;9.754;2022-09-19T04:53:21;8.00;99.90
22966;DHT22;11649;48.090;9.754;2022-09-19T04:55:51;8.00;99.90
22966;DHT22;11649;48.090;9.754;2022-09-19T04:58:19;7.90;99.90
22966;DHT22;11649;48.090;9.754;2022-09-19T05:00:54;7.80;99.90
22966;DHT22;11649;48.090;9.754;2022-09-19T05:03:23;7.90;99.90
22966;DHT22;11649;48.090;9.754;2022-09-19T05:05:54;7.80;99.90
22966;DHT22;11649;48.090;9.754;2022-09-19T05:08:24;7.90;99.90
22966;DHT22;11649;48.090;9.754;2022-09-19T05:10:56;7.90;99.90
22966;DHT22;11649;48.090;9.754;2022-09-19T05:13:24;7.80;99.90
22966;DHT22;11649;48.090;9.754;2022-09-19T05:15:51;7.80;99.90
22966;DHT22;11649;48.090;9.754;2022-09-19T05:18:18;7.80;99.90
22966;DHT22;11649;48.090;9.754;2022-09-19T05:20:49;7.80;99.90
22966;DHT22;11649;48.090;9.754;2022-09-19T05:23:16;7.80;99.90
22966;DHT22;11649;48.090;9.754;2022-09-19T05:25:43;7.80;99.90
22966;DHT22;11649;48.090;9.754;2022-09-19T05:28:10;7.80;99.90
22966;DHT22;11649;48.090;9.754;2022-09-19T05:30:39;7.80;99.90
22966;DHT22;11649;48.090;9.754;2022-09-19T05:33:11;7.70;99.90
22966;DHT22;11649;48.090;9.754;2022-09-19T05:35:38;7.60;99.90
22966;DHT22;11649;48.090;9.754;2022-09-19T05:38:04;7.70;99.90
22966;DHT22;11649;48.090;9.754;2022-09-19T05:40:31;7.70;99.90
22966;DHT22;11649;48.090;9.754;2022-09-19T05:42:58;7.70;99.90
22966;DHT22;11649;48.090;9.754;2022-09-19T05:45:29;7.50;99.90
22966;DHT22;11649;48.090;9.754;2022-09-19T05:48:05;7.60;99.90
22966;DHT22;11649;48.090;9.754;2022-09-19T05:50:33;7.60;99.90
22966;DHT22;11649;48.090;9.754;2022-09-19T05:53:00;7.40;99.90
22966;DHT22;11649;48.090;9.754;2022-09-19T05:55:46;7.50;99.90
22966;DHT22;11649;48.090;9.754;2022-09-19T05:58:12;7.70;99.90
22966;DHT22;11649;48.090;9.754;2022-09-19T06:00:41;7.70;99.90
22966;DHT22;11649;48.090;9.754;2022-09-19T06:03:12;7.80;99.90
22966;DHT22;11649;48.090;9.754;2022-09-19T06:05:46;7.80;99.90
22966;DHT22;11649;48.090;9.754;2022-09-19T06:08:17;8.00;99.90
22966;DHT22;11649;48.090;9.754;2022-09-19T06:10:46;8.00;99.90
22966;DHT22;11649;48.090;9.754;2022-09-19T06:13:23;7.90;99.90
22966;DHT22;11649;48.090;9.754;2022-09-19T06:15:50;7.90;99.90
22966;DHT22;11649;48.090;9.754;2022-09-19T06:18:16;7.90;99.90
22966;DHT22;11649;48.090;9.754;2022-09-19T06:20:44;7.90;99.90
22966;DHT22;11649;48.090;9.754;2022-09-19T06:23:11;8.10;99.90
22966;DHT22;11649;48.090;9.754;2022-09-19T06:25:39;8.00;99.90
22966;DHT22;11649;48.090;9.754;2022-09-19T06:28:12;8.10;99.90
22966;DHT22;11649;48.090;9.754;2022-09-19T06:30:39;8.20;99.90
22966;DHT22;11649;48.090;9.754;2022-09-19T06:33:06;8.30;99.90
22966;DHT22;11649;48.090;9.754;2022-09-19T06:35:36;8.30;99.90
22966;DHT22;11649;48.090;9.754;2022-09-19T06:38:04;8.40;99.90
22966;DHT22;11649;48.090;9.754;2022-09-19T06:40:35;8.30;99.90
22966;DHT22;11649;48.090;9.754;2022-09-19T06:43:06;8.50;99.90
22966;DHT22;11649;48.090;9.754;2022-09-19T06:45:34;8.70;99.90
22966;DHT22;11649;48.090;9.754;2022-09-19T06:48:05;8.70;99.90
22966;DHT22;11649;48.090;9.754;2022-09-19T06:50:33;8.80;99.90
22966;DHT22;11649;48.090;9.754;2022-09-19T06:53:00;8.70;99.90
22966;DHT22;11649;48.090;9.754;2022-09-19T06:55:26;8.70;99.90
22966;DHT22;11649;48.090;9.754;2022-09-19T06:57:57;8.70;99.90
22966;DHT22;11649;48.090;9.754;2022-09-19T07:00:30;8.90;99.90
22966;DHT22;11649;48.090;9.754;2022-09-19T07:03:05;9.00;99.90
22966;DHT22;11649;48.090;9.754;2022-09-19T07:05:34;9.10;99.90
22966;DHT22;11649;48.090;9.754;2022-09-19T07:08:01;9.00;99.90
22966;DHT22;11649;48.090;9.754;2022-09-19T07:10:28;9.00;99.90
22966;DHT22;11649;48.090;9.754;2022-09-19T07:12:57;9.10;99.90
22966;DHT22;11649;48.090;9.754;2022-09-19T07:15:28;9.20;99.90
22966;DHT22;11649;48.090;9.754;2022-09-19T07:17:56;9.20;99.90
22966;DHT22;11649;48.090;9.754;2022-09-19T07:20:24;9.30;99.90
22966;DHT22;11649;48.090;9.754;2022-09-19T07:23:08;9.40;99.90
22966;DHT22;11649;48.090;9.754;2022-09-19T07:25:39;9.40;99.90
22966;DHT22;11649;48.090;9.754;2022-09-19T07:28:09;9.40;99.90
22966;DHT22;11649;48.090;9.754;2022-09-19T07:30:37;9.50;99.90
22966;DHT22;11649;48.090;9.754;2022-09-19T07:33:06;9.60;99.90
22966;DHT22;11649;48.090;9.754;2022-09-19T07:35:35;9.60;99.90
22966;DHT22;11649;48.090;9.754;2022-09-19T07:38:03;9.80;99.90
22966;DHT22;11649;48.090;9.754;2022-09-19T07:40:32;9.60;99.90
22966;DHT22;11649;48.090;9.754;2022-09-19T07:43:04;9.60;99.90
22966;DHT22;11649;48.090;9.754;2022-09-19T07:45:35;9.60;99.90
22966;DHT22;11649;48.090;9.754;2022-09-19T07:48:03;9.70;99.90
22966;DHT22;11649;48.090;9.754;2022-09-19T07:50:31;9.80;99.90
22966;DHT22;11649;48.090;9.754;2022-09-19T07:52:59;9.80;99.90
22966;DHT22;11649;48.090;9.754;2022-09-19T07:55:27;9.80;99.90
22966;DHT22;11649;48.090;9.754;2022-09-19T07:57:55;10.00;99.90
22966;DHT22;11649;48.090;9.754;2022-09-19T08:00:23;10.00;99.90
22966;DHT22;11649;48.090;9.754;2022-09-19T08:02:58;10.00;99.90
22966;DHT22;11649;48.090;9.754;2022-09-19T08:05:27;10.20;99.90
22966;DHT22;11649;48.090;9.754;2022-09-19T08:07:55;10.20;99.90
22966;DHT22;11649;48.090;9.754;2022-09-19T08:10:22;10.20;99.90
22966;DHT22;11649;48.090;9.754;2022-09-19T08:12:48;10.20;99.90
22966;DHT22;11649;48.090;9.754;2022-09-19T08:15:17;10.40;99.90
22966;DHT22;11649;48.090;9.754;2022-09-19T08:20:20;10.60;99.90
22966;DHT22;11649;48.090;9.754;2022-09-19T08:22:47;10.80;99.90
22966;DHT22;11649;48.090;9.754;2022-09-19T08:25:13;10.90;99.90
22966;DHT22;11649;48.090;9.754;2022-09-19T08:27:44;11.00;99.90
22966;DHT22;11649;48.090;9.754;2022-09-19T08:30:11;10.90;99.90
22966;DHT22;11649;48.090;9.754;2022-09-19T08:32:38;11.10;99.90
22966;DHT22;11649;48.090;9.754;2022-09-19T08:35:05;11.20;99.90
22966;DHT22;11649;48.090;9.754;2022-09-19T08:37:31;11.00;99.90
22966;DHT22;11649;48.090;9.754;2022-09-19T08:39:58;10.90;99.90
22966;DHT22;11649;48.090;9.754;2022-09-19T08:46:14;11.10;99.90
22966;DHT22;11649;48.090;9.754;2022-09-19T08:48:29;11.00;99.90
22966;DHT22;11649;48.090;9.754;2022-09-19T08:51:09;11.20;99.90
22966;DHT22;11649;48.090;9.754;2022-09-19T08:53:42;11.30;99.90
22966;DHT22;11649;48.090;9.754;2022-09-19T08:56:11;11.30;99.90
22966;DHT22;11649;48.090;9.754;2022-09-19T08:58:45;11.30;99.90
22966;DHT22;11649;48.090;9.754;2022-09-19T09:01:13;11.40;99.90
22966;DHT22;11649;48.090;9.754;2022-09-19T09:03:48;11.30;99.90
22966;DHT22;11649;48.090;9.754;2022-09-19T09:06:33;11.30;99.90
22966;DHT22;11649;48.090;9.754;2022-09-19T09:18:41;11.90;99.90
22966;DHT22;11649;48.090;9.754;2022-09-19T09:23:38;11.70;99.90
22966;DHT22;11649;48.090;9.754;2022-09-19T09:26:25;11.70;99.90
22966;DHT22;11649;48.090;9.754;2022-09-19T09:29:43;11.60;99.90
22966;DHT22;11649;48.090;9.754;2022-09-19T09:32:16;11.60;99.90
22966;DHT22;11649;48.090;9.754;2022-09-19T09:34:55;11.70;99.90
22966;DHT22;11649;48.090;9.754;2022-09-19T09:37:34;11.90;99.90
22966;DHT22;11649;48.090;9.754;2022-09-19T09:40:14;11.90;99.90
22966;DHT22;11649;48.090;9.754;2022-09-19T09:43:26;11.80;99.90
22966;DHT22;11649;48.090;9.754;2022-09-19T09:45:57;11.70;99.90
22966;DHT22;11649;48.090;9.754;2022-09-19T09:48:32;11.70;99.90
22966;DHT22;11649;48.090;9.754;2022-09-19T09:51:28;11.80;99.90
22966;DHT22;11649;48.090;9.754;2022-09-19T09:57:02;12.00;99.90
22966;DHT22;11649;48.090;9.754;2022-09-19T09:59:39;11.90;99.90
22966;DHT22;11649;48.090;9.754;2022-09-19T10:05:43;12.20;99.90
22966;DHT22;11649;48.090;9.754;2022-09-19T10:08:28;12.20;99.90
22966;DHT22;11649;48.090;9.754;2022-09-19T10:11:18;12.30;99.90
22966;DHT22;11649;48.090;9.754;2022-09-19T10:17:05;12.30;99.90
22966;DHT22;11649;48.090;9.754;2022-09-19T10:22:15;12.10;99.90
22966;DHT22;11649;48.090;9.754;2022-09-19T10:27:36;11.80;99.90
22966;DHT22;11649;48.090;9.754;2022-09-19T10:30:15;11.60;99.90
22966;DHT22;11649;48.090;9.754;2022-09-19T10:32:47;11.40;99.90
22966;DHT22;11649;48.090;9.754;2022-09-19T10:35:34;11.60;99.90
22966;DHT22;11649;48.090;9.754;2022-09-19T10:38:21;11.80;99.90
22966;DHT22;11649;48.090;9.754;2022-09-19T10:40:57;12.00;99.90
22966;DHT22;11649;48.090;9.754;2022-09-19T10:43:31;12.10;99.90
22966;DHT22;11649;48.090;9.754;2022-09-19T10:46:00;12.20;99.90
22966;DHT22;11649;48.090;9.754;2022-09-19T10:48:35;12.30;99.90
22966;DHT22;11649;48.090;9.754;2022-09-19T10:51:07;12.60;99.90
22966;DHT22;11649;48.090;9.754;2022-09-19T10:53:37;12.30;99.90
22966;DHT22;11649;48.090;9.754;2022-09-19T10:56:16;12.40;99.90
22966;DHT22;11649;48.090;9.754;2022-09-19T11:01:27;12.50;99.90
22966;DHT22;11649;48.090;9.754;2022-09-19T11:04:21;12.50;99.90
22966;DHT22;11649;48.090;9.754;2022-09-19T11:07:00;12.60;99.90
22966;DHT22;11649;48.090;9.754;2022-09-19T11:09:34;12.50;99.90
22966;DHT22;11649;48.090;9.754;2022-09-19T11:12:15;12.50;99.90
22966;DHT22;11649;48.090;9.754;2022-09-19T11:14:47;12.30;99.90
22966;DHT22;11649;48.090;9.754;2022-09-19T11:20:12;12.40;99.90
22966;DHT22;11649;48.090;9.754;2022-09-19T11:28:44;12.60;99.90
22966;DHT22;11649;48.090;9.754;2022-09-19T11:34:53;13.00;99.90
22966;DHT22;11649;48.090;9.754;2022-09-19T11:38:10;13.30;99.90
22966;DHT22;11649;48.090;9.754;2022-09-19T11:41:27;13.30;99.90
22966;DHT22;11649;48.090;9.754;2022-09-19T11:44:14;13.60;99.90
22966;DHT22;11649;48.090;9.754;2022-09-19T12:09:41;13.80;89.40
22966;DHT22;11649;48.090;9.754;2022-09-19T12:12:17;13.40;93.40
22966;DHT22;11649;48.090;9.754;2022-09-19T12:14:46;13.10;94.50
22966;DHT22;11649;48.090;9.754;2022-09-19T12:17:21;13.80;95.00
22966;DHT22;11649;48.090;9.754;2022-09-19T12:26:06;13.20;91.00
22966;DHT22;11649;48.090;9.754;2022-09-19T12:28:40;13.10;94.70
22966;DHT22;11649;48.090;9.754;2022-09-19T12:31:18;13.30;95.90
22966;DHT22;11649;48.090;9.754;2022-09-19T12:33:55;13.60;96.50
22966;DHT22;11649;48.090;9.754;2022-09-19T12:36:25;13.50;93.60
22966;DHT22;11649;48.090;9.754;2022-09-19T12:39:06;13.30;94.80
22966;DHT22;11649;48.090;9.754;2022-09-19T12:44:27;13.60;92.60
22966;DHT22;11649;48.090;9.754;2022-09-19T12:47:20;13.70;92.10
22966;DHT22;11649;48.090;9.754;2022-09-19T12:50:11;14.00;90.00
22966;DHT22;11649;48.090;9.754;2022-09-19T12:55:38;14.20;92.60
22966;DHT22;11649;48.090;9.754;2022-09-19T12:58:19;14.60;85.40
22966;DHT22;11649;48.090;9.754;2022-09-19T13:03:56;14.90;86.40
22966;DHT22;11649;48.090;9.754;2022-09-19T13:06:33;14.80;81.60
22966;DHT22;11649;48.090;9.754;2022-09-19T13:11:49;14.60;82.90
22966;DHT22;11649;48.090;9.754;2022-09-19T13:14:26;14.50;85.10
22966;DHT22;11649;48.090;9.754;2022-09-19T13:16:58;15.20;88.70
22966;DHT22;11649;48.090;9.754;2022-09-19T13:19:46;15.00;88.70
22966;DHT22;11649;48.090;9.754;2022-09-19T13:22:46;15.30;88.10
22966;DHT22;11649;48.090;9.754;2022-09-19T13:25:32;15.10;80.80
22966;DHT22;11649;48.090;9.754;2022-09-19T13:33:50;16.00;73.30
22966;DHT22;11649;48.090;9.754;2022-09-19T13:38:53;16.60;69.20
22966;DHT22;11649;48.090;9.754;2022-09-19T13:41:41;16.90;66.00
22966;DHT22;11649;48.090;9.754;2022-09-19T13:46:53;15.80;82.00
22966;DHT22;11649;48.090;9.754;2022-09-19T13:49:30;15.00;93.80
22966;DHT22;11649;48.090;9.754;2022-09-19T13:52:02;14.10;98.80
22966;DHT22;11649;48.090;9.754;2022-09-19T13:57:10;13.30;99.90
22966;DHT22;11649;48.090;9.754;2022-09-19T13:59:40;13.40;99.90
22966;DHT22;11649;48.090;9.754;2022-09-19T14:07:27;12.90;99.90
22966;DHT22;11649;48.090;9.754;2022-09-19T14:10:27;12.90;99.90
22966;DHT22;11649;48.090;9.754;2022-09-19T14:12:59;13.10;99.90
22966;DHT22;11649;48.090;9.754;2022-09-19T14:18:26;13.50;99.90
22966;DHT22;11649;48.090;9.754;2022-09-19T14:21:00;13.70;99.90
22966;DHT22;11649;48.090;9.754;2022-09-19T14:23:40;14.10;99.90
22966;DHT22;11649;48.090;9.754;2022-09-19T14:29:01;14.80;99.70
22966;DHT22;11649;48.090;9.754;2022-09-19T14:37:16;14.80;99.90
22966;DHT22;11649;48.090;9.754;2022-09-19T14:40:20;14.70;99.90
22966;DHT22;11649;48.090;9.754;2022-09-19T14:46:39;14.50;92.70
22966;DHT22;11649;48.090;9.754;2022-09-19T14:49:18;14.30;96.90
22966;DHT22;11649;48.090;9.754;2022-09-19T14:51:56;14.20;96.30
22966;DHT22;11649;48.090;9.754;2022-09-19T14:54:37;14.20;96.50
22966;DHT22;11649;48.090;9.754;2022-09-19T14:57:15;14.40;98.10
22966;DHT22;11649;48.090;9.754;2022-09-19T14:59:43;14.60;98.80
22966;DHT22;11649;48.090;9.754;2022-09-19T15:02:18;14.90;97.50
22966;DHT22;11649;48.090;9.754;2022-09-19T15:04:47;15.10;95.00
22966;DHT22;11649;48.090;9.754;2022-09-19T15:07:28;15.30;95.30
22966;DHT22;11649;48.090;9.754;2022-09-19T15:09:56;15.40;91.50
22966;DHT22;11649;48.090;9.754;2022-09-19T15:12:29;15.30;86.30
22966;DHT22;11649;48.090;9.754;2022-09-19T15:14:57;15.20;89.00
22966;DHT22;11649;48.090;9.754;2022-09-19T15:17:32;15.20;91.30
22966;DHT22;11649;48.090;9.754;2022-09-19T15:22:35;14.90;87.70
22966;DHT22;11649;48.090;9.754;2022-09-19T15:25:16;15.10;90.30
22966;DHT22;11649;48.090;9.754;2022-09-19T15:27:48;15.10;83.40
22966;DHT22;11649;48.090;9.754;2022-09-19T15:30:24;15.70;81.90
22966;DHT22;11649;48.090;9.754;2022-09-19T15:33:08;15.90;83.80
22966;DHT22;11649;48.090;9.754;2022-09-19T15:35:40;15.20;82.60
22966;DHT22;11649;48.090;9.754;2022-09-19T15:38:15;15.10;81.10
22966;DHT22;11649;48.090;9.754;2022-09-19T15:40:46;15.20;86.20
22966;DHT22;11649;48.090;9.754;2022-09-19T15:43:14;15.10;90.10
22966;DHT22;11649;48.090;9.754;2022-09-19T15:45:47;15.40;82.20
22966;DHT22;11649;48.090;9.754;2022-09-19T15:48:22;15.70;86.70
22966;DHT22;11649;48.090;9.754;2022-09-19T15:50:54;15.40;95.00
22966;DHT22;11649;48.090;9.754;2022-09-19T15:53:29;15.00;97.00
22966;DHT22;11649;48.090;9.754;2022-09-19T15:58:40;14.00;99.90
22966;DHT22;11649;48.090;9.754;2022-09-19T16:01:23;13.90;99.90
22966;DHT22;11649;48.090;9.754;2022-09-19T16:04:19;14.00;99.90
22966;DHT22;11649;48.090;9.754;2022-09-19T16:09:43;14.20;99.90
22966;DHT22;11649;48.090;9.754;2022-09-19T16:15:00;13.60;99.90
22966;DHT22;11649;48.090;9.754;2022-09-19T16:25:45;13.90;99.90
22966;DHT22;11649;48.090;9.754;2022-09-19T16:28:36;14.10;97.30
22966;DHT22;11649;48.090;9.754;2022-09-19T16:31:19;14.30;96.90
22966;DHT22;11649;48.090;9.754;2022-09-19T16:33:54;14.10;99.90
22966;DHT22;11649;48.090;9.754;2022-09-19T16:36:22;14.20;96.40
22966;DHT22;11649;48.090;9.754;2022-09-19T16:39:24;14.30;95.30
22966;DHT22;11649;48.090;9.754;2022-09-19T16:42:28;14.30;91.40
22966;DHT22;11649;48.090;9.754;2022-09-19T16:45:15;13.90;96.70
22966;DHT22;11649;48.090;9.754;2022-09-19T16:47:44;13.80;96.50
22966;DHT22;11649;48.090;9.754;2022-09-19T16:50:12;13.60;99.90
22966;DHT22;11649;48.090;9.754;2022-09-19T16:52:44;13.40;99.90
22966;DHT22;11649;48.090;9.754;2022-09-19T16:55:24;13.20;99.90
22966;DHT22;11649;48.090;9.754;2022-09-19T16:57:57;13.10;99.90
22966;DHT22;11649;48.090;9.754;2022-09-19T17:00:25;12.80;99.90
22966;DHT22;11649;48.090;9.754;2022-09-19T17:02:53;12.60;99.90
22966;DHT22;11649;48.090;9.754;2022-09-19T17:05:22;12.60;99.90
22966;DHT22;11649;48.090;9.754;2022-09-19T17:07:51;12.00;99.90
22966;DHT22;11649;48.090;9.754;2022-09-19T17:10:19;12.30;99.90
22966;DHT22;11649;48.090;9.754;2022-09-19T17:12:46;12.10;99.90
22966;DHT22;11649;48.090;9.754;2022-09-19T17:18:10;12.00;99.90
22966;DHT22;11649;48.090;9.754;2022-09-19T17:20:40;12.20;99.90
22966;DHT22;11649;48.090;9.754;2022-09-19T17:23:15;11.90;99.90
22966;DHT22;11649;48.090;9.754;2022-09-19T17:25:45;11.90;99.90
22966;DHT22;11649;48.090;9.754;2022-09-19T17:28:13;11.90;99.90
22966;DHT22;11649;48.090;9.754;2022-09-19T17:30:41;12.20;99.90
22966;DHT22;11649;48.090;9.754;2022-09-19T17:33:11;12.40;99.90
22966;DHT22;11649;48.090;9.754;2022-09-19T17:35:40;12.20;99.90
22966;DHT22;11649;48.090;9.754;2022-09-19T17:38:07;11.70;99.90
22966;DHT22;11649;48.090;9.754;2022-09-19T17:40:40;12.20;99.90
22966;DHT22;11649;48.090;9.754;2022-09-19T17:43:11;11.70;99.90
22966;DHT22;11649;48.090;9.754;2022-09-19T17:45:45;11.50;99.90
22966;DHT22;11649;48.090;9.754;2022-09-19T17:48:17;11.50;99.90
22966;DHT22;11649;48.090;9.754;2022-09-19T17:50:44;11.90;99.90
22966;DHT22;11649;48.090;9.754;2022-09-19T17:53:12;11.20;99.90
22966;DHT22;11649;48.090;9.754;2022-09-19T17:55:39;11.00;99.90
22966;DHT22;11649;48.090;9.754;2022-09-19T17:58:06;11.00;99.90
22966;DHT22;11649;48.090;9.754;2022-09-19T18:00:39;11.00;99.90
22966;DHT22;11649;48.090;9.754;2022-09-19T18:03:06;11.30;99.90
22966;DHT22;11649;48.090;9.754;2022-09-19T18:05:56;10.80;99.90
22966;DHT22;11649;48.090;9.754;2022-09-19T18:08:25;10.60;99.90
22966;DHT22;11649;48.090;9.754;2022-09-19T18:10:58;10.60;99.90
22966;DHT22;11649;48.090;9.754;2022-09-19T18:13:25;10.60;99.90
22966;DHT22;11649;48.090;9.754;2022-09-19T18:15:52;10.40;99.90
22966;DHT22;11649;48.090;9.754;2022-09-19T18:18:19;11.20;99.90
22966;DHT22;11649;48.090;9.754;2022-09-19T18:20:52;10.50;99.90
22966;DHT22;11649;48.090;9.754;2022-09-19T18:23:23;10.40;99.90
22966;DHT22;11649;48.090;9.754;2022-09-19T18:25:50;11.90;99.90
22966;DHT22;11649;48.090;9.754;2022-09-19T18:28:21;11.30;99.90
22966;DHT22;11649;48.090;9.754;2022-09-19T18:30:48;9.80;99.90
22966;DHT22;11649;48.090;9.754;2022-09-19T18:33:15;9.70;99.90
22966;DHT22;11649;48.090;9.754;2022-09-19T18:35:41;10.40;99.90
22966;DHT22;11649;48.090;9.754;2022-09-19T18:38:09;9.60;99.90
22966;DHT22;11649;48.090;9.754;2022-09-19T18:40:35;9.70;99.90
22966;DHT22;11649;48.090;9.754;2022-09-19T18:43:02;9.50;99.90
22966;DHT22;11649;48.090;9.754;2022-09-19T18:45:29;10.60;99.90
22966;DHT22;11649;48.090;9.754;2022-09-19T18:47:56;9.80;99.90
22966;DHT22;11649;48.090;9.754;2022-09-19T18:50:23;9.70;99.90
22966;DHT22;11649;48.090;9.754;2022-09-19T18:52:49;9.90;99.90
22966;DHT22;11649;48.090;9.754;2022-09-19T18:55:16;9.90;99.90
22966;DHT22;11649;48.090;9.754;2022-09-19T18:57:43;9.90;99.90
22966;DHT22;11649;48.090;9.754;2022-09-19T19:00:10;9.80;99.90
22966;DHT22;11649;48.090;9.754;2022-09-19T19:02:37;9.60;99.90
22966;DHT22;11649;48.090;9.754;2022-09-19T19:05:04;9.70;99.90
22966;DHT22;11649;48.090;9.754;2022-09-19T19:07:31;9.50;99.90
22966;DHT22;11649;48.090;9.754;2022-09-19T19:09:58;9.40;99.90
22966;DHT22;11649;48.090;9.754;2022-09-19T19:12:25;9.50;99.90
22966;DHT22;11649;48.090;9.754;2022-09-19T19:15:12;9.60;99.90